createdAt,value
2018-09-02T07:50:11.225Z,17.57
2018-09-02T07:51:11.495Z,17.66
2018-09-02T07:52:11.090Z,17.75
2018-09-02T07:53:11.207Z,17.83
2018-09-02T07:54:11.066Z,17.81
2018-09-02T07:55:11.042Z,17.87
2018-09-02T07:56:11.008Z,17.81
2018-09-02T07:57:11.013Z,17.91
2018-09-02T07:58:11.022Z,18.01
2018-09-02T07:59:10.960Z,17.99
2018-09-02T08:00:10.934Z,18.03
2018-09-02T08:01:10.918Z,18.08
2018-09-02T08:02:10.914Z,18.11
2018-09-02T08:03:10.904Z,18.18
2018-09-02T08:04:10.865Z,18.15
2018-09-02T08:05:10.859Z,18.27
2018-09-02T08:06:10.893Z,18.23
2018-09-02T08:07:10.822Z,18.23
2018-09-02T08:08:10.801Z,18.41
2018-09-02T08:09:10.802Z,18.36
2018-09-02T08:10:10.811Z,18.43
2018-09-02T08:11:10.739Z,18.48
2018-09-02T08:12:10.726Z,18.57
2018-09-02T08:13:10.705Z,18.61
2018-09-02T08:14:10.683Z,18.66
2018-09-02T08:15:10.686Z,18.63
2018-09-02T08:16:10.656Z,18.68
2018-09-02T08:17:10.739Z,18.71
2018-09-02T08:18:10.637Z,18.70
2018-09-02T08:19:10.628Z,18.79
2018-09-02T08:20:10.580Z,18.91
2018-09-02T08:21:10.570Z,18.85
2018-09-02T08:22:10.630Z,18.76
2018-09-02T08:23:10.529Z,18.85
2018-09-02T08:24:10.526Z,18.86
2018-09-02T08:25:10.500Z,18.93
2018-09-02T08:26:10.487Z,19.01
2018-09-02T08:27:10.462Z,18.96
2018-09-02T08:28:10.444Z,18.91
2018-09-02T08:29:10.428Z,19.01
2018-09-02T08:30:10.418Z,18.96
2018-09-02T08:31:10.434Z,19.07
2018-09-02T08:32:10.418Z,19.08
2018-09-02T08:33:10.482Z,19.07
2018-09-02T08:34:10.362Z,19.12
2018-09-02T08:35:10.324Z,19.00
2018-09-02T08:36:10.313Z,19.15
2018-09-02T08:37:10.305Z,19.19
2018-09-02T08:38:10.274Z,19.19
2018-09-02T08:39:10.277Z,19.23
2018-09-02T08:40:10.245Z,19.31
2018-09-02T08:41:10.224Z,19.26
2018-09-02T08:42:10.238Z,19.30
2018-09-02T08:43:10.195Z,19.45
2018-09-02T08:44:10.247Z,19.44
2018-09-02T08:45:10.178Z,19.50
2018-09-02T08:46:10.164Z,19.47
2018-09-02T08:47:10.147Z,19.53
2018-09-02T08:48:10.110Z,19.50
2018-09-02T08:49:10.132Z,19.49
2018-09-02T08:50:10.080Z,19.47
2018-09-02T08:51:10.066Z,19.59
2018-09-02T08:52:10.061Z,19.56
2018-09-02T08:53:10.067Z,19.56
2018-09-02T08:54:10.045Z,19.63
2018-09-02T08:55:10.028Z,19.62
2018-09-02T08:56:10.034Z,19.67
2018-09-02T08:57:09.979Z,19.74
2018-09-02T08:58:09.965Z,19.75
2018-09-02T08:59:09.962Z,19.68
2018-09-02T09:00:09.920Z,19.75
2018-09-02T09:01:09.908Z,19.84
2018-09-02T09:02:09.897Z,19.86
2018-09-02T09:03:09.863Z,19.82
2018-09-02T09:04:09.854Z,19.86
2018-09-02T09:05:09.837Z,19.84
2018-09-02T09:06:09.816Z,19.89
2018-09-02T09:07:09.825Z,19.86
2018-09-02T09:08:09.858Z,19.84
2018-09-02T09:09:09.882Z,19.97
2018-09-02T09:10:09.759Z,19.92
2018-09-02T09:11:09.764Z,20.07
2018-09-02T09:12:09.739Z,20.07
2018-09-02T09:13:09.701Z,20.11
2018-09-02T09:14:09.774Z,20.15
2018-09-02T09:15:09.667Z,20.23
2018-09-02T09:16:09.682Z,20.27
2018-09-02T09:17:09.748Z,20.42
2018-09-02T09:18:09.631Z,20.36
2018-09-02T09:19:09.605Z,20.41
2018-09-02T09:20:09.654Z,20.46
2018-09-02T09:21:09.573Z,20.61
2018-09-02T09:22:09.647Z,20.55
2018-09-02T09:23:09.542Z,20.63
2018-09-02T09:24:09.627Z,20.67
2018-09-02T09:25:09.581Z,20.70
2018-09-02T09:26:09.509Z,20.80
2018-09-02T09:27:09.482Z,20.80
2018-09-02T09:29:30.893Z,20.85
2018-09-02T09:30:30.532Z,20.92
2018-09-02T09:35:08.266Z,20.93
2018-09-02T09:35:35.681Z,20.88
2018-09-02T09:37:30.077Z,20.86
2018-09-02T09:38:30.039Z,20.80
2018-09-02T09:39:30.014Z,20.86
2018-09-02T09:40:30.030Z,20.83
2018-09-02T09:41:29.992Z,20.89
2018-09-02T09:42:29.971Z,20.86
2018-09-02T09:43:29.941Z,20.97
2018-09-02T09:44:29.932Z,20.92
2018-09-02T09:45:29.916Z,21.01
2018-09-02T09:46:29.899Z,21.04
2018-09-02T09:47:29.886Z,21.22
2018-09-02T09:48:29.867Z,21.10
2018-09-02T09:49:29.994Z,21.19
2018-09-02T09:50:29.850Z,21.26
2018-09-02T09:51:29.822Z,21.32
2018-09-02T09:52:29.808Z,21.35
2018-09-02T09:53:29.864Z,21.38
2018-09-02T09:54:29.789Z,21.47
2018-09-02T09:55:29.837Z,21.59
2018-09-02T09:56:29.759Z,21.60
2018-09-02T09:57:29.725Z,21.63
2018-09-02T09:58:29.710Z,21.62
2018-09-02T09:59:29.702Z,21.56
2018-09-02T10:00:29.680Z,21.59
2018-09-02T10:01:29.720Z,21.62
2018-09-02T10:02:29.655Z,21.60
2018-09-02T10:03:29.695Z,21.45
2018-09-02T10:04:29.688Z,21.41
2018-09-02T10:05:29.651Z,21.55
2018-09-02T10:06:29.608Z,21.58
2018-09-02T10:07:29.587Z,21.67
2018-09-02T10:08:29.566Z,21.65
2018-09-02T10:09:29.541Z,21.55
2018-09-02T10:10:29.675Z,21.56
2018-09-02T10:11:29.526Z,21.63
2018-09-02T10:12:29.608Z,21.60
2018-09-02T10:13:29.508Z,21.65
2018-09-02T10:14:29.475Z,21.63
2018-09-02T10:15:29.479Z,21.74
2018-09-02T10:16:29.448Z,21.73
2018-09-02T10:17:29.422Z,21.80
2018-09-02T10:18:29.424Z,21.80
2018-09-02T10:19:29.395Z,21.74
2018-09-02T10:20:29.389Z,21.69
2018-09-02T10:21:29.387Z,21.74
2018-09-02T10:22:29.371Z,21.75
2018-09-02T10:23:29.342Z,21.78
2018-09-02T10:24:29.315Z,21.90
2018-09-02T10:25:29.322Z,21.78
2018-09-02T10:26:29.285Z,21.81
2018-09-02T10:27:29.324Z,21.91
2018-09-02T10:28:29.255Z,21.90
2018-09-02T10:29:29.249Z,21.94
2018-09-02T10:30:29.253Z,21.98
2018-09-02T10:31:29.212Z,22.04
2018-09-02T10:32:29.199Z,21.94
2018-09-02T10:33:29.253Z,22.00
2018-09-02T10:34:29.166Z,21.98
2018-09-02T10:35:29.156Z,21.91
2018-09-02T10:36:29.160Z,21.93
2018-09-02T10:37:29.148Z,21.88
2018-09-02T10:38:29.108Z,21.96
2018-09-02T10:39:29.103Z,22.03
2018-09-02T10:40:29.100Z,22.12
2018-09-02T10:41:29.128Z,22.19
2018-09-02T10:42:29.057Z,22.18
2018-09-02T10:43:29.060Z,22.07
2018-09-02T10:44:29.043Z,22.06
2018-09-02T10:45:29.005Z,22.13
2018-09-02T10:46:29.024Z,22.15
2018-09-02T10:47:28.977Z,22.15
2018-09-02T10:48:28.965Z,22.21
2018-09-02T10:49:28.949Z,22.31
2018-09-02T10:50:28.932Z,22.38
2018-09-02T10:51:28.948Z,22.40
2018-09-02T10:52:28.923Z,22.49
2018-09-02T10:53:28.924Z,22.41
2018-09-02T10:54:28.871Z,22.53
2018-09-02T10:55:28.869Z,22.44
2018-09-02T10:56:28.845Z,22.52
2018-09-02T10:57:28.835Z,22.56
2018-09-02T10:58:28.812Z,22.56
2018-09-02T10:59:28.873Z,22.64
2018-09-02T11:00:28.801Z,22.61
2018-09-02T11:01:28.777Z,22.58
2018-09-02T11:02:28.768Z,22.61
2018-09-02T11:03:28.746Z,22.61
2018-09-02T11:04:28.727Z,22.56
2018-09-02T11:05:28.721Z,22.61
2018-09-02T11:06:28.699Z,22.67
2018-09-02T11:07:28.684Z,22.80
2018-09-02T11:08:28.669Z,22.73
2018-09-02T11:09:28.659Z,22.71
2018-09-02T11:10:28.655Z,22.62
2018-09-02T11:11:28.666Z,22.74
2018-09-02T11:12:28.635Z,22.68
2018-09-02T11:13:28.620Z,22.73
2018-09-02T11:14:28.586Z,22.71
2018-09-02T11:15:28.577Z,22.76
2018-09-02T11:16:28.583Z,22.78
2018-09-02T11:17:28.540Z,22.80
2018-09-02T11:18:28.529Z,22.78
2018-09-02T11:19:28.534Z,22.85
2018-09-02T11:20:28.514Z,22.91
2018-09-02T11:21:28.483Z,23.03
2018-09-02T11:22:28.471Z,22.93
2018-09-02T11:23:28.472Z,23.06
2018-09-02T11:24:28.441Z,22.95
2018-09-02T11:25:28.424Z,22.96
2018-09-02T11:26:28.409Z,22.95
2018-09-02T11:27:28.434Z,22.99
2018-09-02T11:28:28.403Z,23.07
2018-09-02T11:29:28.369Z,23.06
2018-09-02T11:30:28.354Z,23.08
2018-09-02T11:31:28.363Z,23.08
2018-09-02T11:32:28.325Z,23.10
2018-09-02T11:33:28.325Z,23.11
2018-09-02T11:34:28.324Z,23.11
2018-09-02T11:35:28.286Z,23.14
2018-09-02T11:36:28.304Z,23.06
2018-09-02T11:37:28.256Z,23.14
2018-09-02T11:38:28.247Z,23.15
2018-09-02T11:39:28.233Z,23.26
2018-09-02T11:40:28.214Z,23.22
2018-09-02T11:41:28.201Z,23.22
2018-09-02T11:42:28.187Z,23.26
2018-09-02T11:43:28.171Z,23.26
2018-09-02T11:44:28.169Z,23.23
2018-09-02T11:45:28.150Z,23.36
2018-09-02T11:46:28.127Z,23.28
2018-09-02T11:47:28.123Z,23.22
2018-09-02T11:48:28.127Z,23.37
2018-09-02T11:49:28.090Z,23.45
2018-09-02T11:50:28.106Z,23.44
2018-09-02T11:51:28.059Z,23.45
2018-09-02T11:52:28.058Z,23.49
2018-09-02T11:53:28.028Z,23.41
2018-09-02T11:54:28.064Z,23.36
2018-09-02T11:55:28.016Z,23.33
2018-09-02T11:56:28.006Z,23.34
2018-09-02T11:57:27.988Z,23.42
2018-09-02T11:58:27.969Z,23.42
2018-09-02T11:59:27.999Z,23.42
2018-09-02T12:00:27.971Z,23.45
2018-09-02T12:01:27.924Z,23.51
2018-09-02T12:02:27.916Z,23.61
2018-09-02T12:03:27.911Z,23.66
2018-09-02T12:04:27.932Z,23.66
2018-09-02T12:05:27.928Z,23.63
2018-09-02T12:06:27.854Z,23.67
2018-09-02T12:07:27.856Z,23.74
2018-09-02T12:08:27.821Z,23.74
2018-09-02T12:09:27.826Z,23.70
2018-09-02T12:10:27.817Z,23.71
2018-09-02T12:11:27.805Z,23.84
2018-09-02T12:12:27.769Z,23.86
2018-09-02T12:13:27.751Z,23.91
2018-09-02T12:14:27.741Z,23.96
2018-09-02T12:15:27.746Z,24.07
2018-09-02T12:16:27.717Z,24.06
2018-09-02T12:17:27.751Z,24.00
2018-09-02T12:18:27.712Z,24.01
2018-09-02T12:19:27.683Z,24.06
2018-09-02T12:20:27.675Z,24.07
2018-09-02T12:21:27.644Z,24.13
2018-09-02T12:22:27.631Z,24.04
2018-09-02T12:23:27.652Z,24.21
2018-09-02T12:24:27.604Z,24.23
2018-09-02T12:25:27.595Z,24.16
2018-09-02T12:26:27.598Z,24.28
2018-09-02T12:27:27.585Z,24.28
2018-09-02T12:28:27.551Z,24.36
2018-09-02T12:29:27.541Z,24.36
2018-09-02T12:30:27.522Z,24.38
2018-09-02T12:31:27.583Z,24.40
2018-09-02T12:32:27.512Z,24.48
2018-09-02T12:33:27.499Z,24.52
2018-09-02T12:34:27.469Z,24.51
2018-09-02T12:35:27.476Z,24.47
2018-09-02T12:36:27.450Z,24.52
2018-09-02T12:37:27.471Z,24.51
2018-09-02T12:38:27.451Z,24.45
2018-09-02T12:42:33.589Z,24.62
2018-09-02T12:43:33.575Z,24.68
2018-09-02T12:44:33.671Z,24.63
2018-09-02T12:45:33.547Z,24.68
2018-09-02T12:46:33.561Z,24.71
2018-09-02T12:47:33.577Z,24.79
2018-09-02T12:48:33.566Z,24.79
2018-09-02T12:49:33.507Z,24.79
2018-09-02T12:50:33.498Z,24.81
2018-09-02T12:51:34.138Z,24.86
2018-09-02T12:52:33.456Z,24.90
2018-09-02T12:53:33.479Z,24.90
2018-09-02T12:54:33.444Z,25.04
2018-09-02T12:55:33.412Z,25.11
2018-09-02T12:56:33.404Z,25.08
2018-09-02T12:57:33.391Z,25.23
2018-09-02T12:58:33.386Z,25.31
2018-09-02T12:59:33.376Z,25.36
2018-09-02T13:00:33.353Z,25.34
2018-09-02T13:01:33.344Z,25.36
2018-09-02T13:02:33.329Z,25.45
2018-09-02T13:03:33.364Z,25.45
2018-09-02T13:04:33.297Z,25.37
2018-09-02T13:05:33.287Z,25.33
2018-09-02T13:06:33.280Z,25.43
2018-09-02T13:07:33.263Z,25.38
2018-09-02T13:08:33.256Z,25.51
2018-09-02T13:09:33.331Z,25.45
2018-09-02T13:10:33.247Z,25.34
2018-09-02T13:11:33.247Z,25.38
2018-09-02T13:12:33.232Z,25.46
2018-09-02T13:13:33.204Z,25.52
2018-09-02T13:14:33.176Z,25.82
2018-09-02T13:15:33.180Z,25.89
2018-09-02T13:16:33.152Z,26.03
2018-09-02T13:17:33.145Z,26.12
2018-09-02T13:18:33.134Z,26.16
2018-09-02T13:19:33.144Z,26.23
2018-09-02T13:20:33.120Z,26.64
2018-09-02T13:21:33.108Z,26.82
2018-09-02T13:22:33.082Z,27.08
2018-09-02T13:23:33.089Z,27.27
2018-09-02T13:24:33.108Z,27.38
2018-09-02T13:25:33.055Z,27.66
2018-09-02T13:26:33.058Z,27.72
2018-09-02T13:27:33.058Z,27.88
2018-09-02T13:28:33.045Z,27.85
2018-09-02T13:29:33.013Z,27.91
2018-09-02T13:30:33.019Z,27.90
2018-09-02T13:31:33.001Z,27.87
2018-09-02T13:32:33.052Z,27.90
2018-09-02T13:33:33.041Z,28.03
2018-09-02T13:34:32.967Z,28.13
2018-09-02T13:35:32.984Z,27.95
2018-09-02T13:36:32.957Z,27.97
2018-09-02T13:37:32.971Z,28.15
2018-09-02T13:38:32.955Z,28.17
2018-09-02T13:39:32.952Z,28.20
2018-09-02T13:40:32.935Z,28.17
2018-09-02T13:41:32.932Z,28.46
2018-09-02T13:42:32.946Z,28.43
2018-09-02T13:43:32.903Z,28.17
2018-09-02T13:44:32.887Z,28.22
2018-09-02T13:45:32.919Z,28.00
2018-09-02T13:46:32.879Z,27.88
2018-09-02T13:47:32.882Z,27.26
2018-09-02T13:48:32.941Z,27.22
2018-09-02T13:49:32.889Z,27.17
2018-09-02T13:50:32.850Z,27.40
2018-09-02T13:51:32.885Z,27.69
2018-09-02T13:52:32.833Z,27.88
2018-09-02T13:53:32.861Z,27.94
2018-09-02T13:54:32.845Z,28.05
2018-09-02T13:55:32.815Z,28.09
2018-09-02T13:56:32.809Z,27.93
2018-09-02T13:57:32.809Z,27.82
2018-09-02T13:58:32.808Z,27.32
2018-09-02T13:59:32.877Z,27.12
2018-09-02T14:00:32.791Z,27.12
2018-09-02T14:01:32.773Z,26.86
2018-09-02T14:02:32.781Z,26.73
2018-09-02T14:03:32.763Z,26.41
2018-09-02T14:04:32.766Z,26.15
2018-09-02T14:05:32.777Z,26.01
2018-09-02T14:06:32.736Z,25.89
2018-09-02T14:07:32.748Z,25.78
2018-09-02T14:08:32.733Z,25.81
2018-09-02T14:09:32.738Z,25.64
2018-09-02T14:10:32.695Z,25.51
2018-09-02T14:11:32.694Z,25.38
2018-09-02T14:12:32.711Z,25.31
2018-09-02T14:13:32.696Z,25.15
2018-09-02T14:14:32.674Z,25.18
2018-09-02T14:15:32.661Z,25.21
2018-09-02T14:16:32.680Z,25.31
2018-09-02T14:17:32.637Z,25.45
2018-09-02T14:18:32.681Z,25.53
2018-09-02T14:19:32.690Z,25.56
2018-09-02T14:20:32.643Z,25.66
2018-09-02T14:21:32.595Z,25.71
2018-09-02T14:22:32.618Z,25.53
2018-09-02T14:23:32.582Z,25.38
2018-09-02T14:24:32.594Z,25.21
2018-09-02T14:25:32.593Z,25.06
2018-09-02T14:26:32.569Z,25.16
2018-09-02T14:27:32.572Z,25.14
2018-09-02T14:28:32.657Z,24.99
2018-09-02T14:29:32.527Z,24.99
2018-09-02T14:30:32.537Z,25.00
2018-09-02T14:31:32.537Z,24.91
2018-09-02T14:32:32.490Z,24.84
2018-09-02T14:33:32.481Z,24.86
2018-09-02T14:34:32.510Z,24.76
2018-09-02T14:35:32.497Z,24.66
2018-09-02T14:36:32.485Z,24.58
2018-09-02T14:37:32.461Z,24.59
2018-09-02T14:38:32.442Z,24.48
2018-09-02T14:39:32.487Z,24.47
2018-09-02T14:40:32.424Z,24.40
2018-09-02T14:41:32.509Z,24.36
2018-09-02T14:42:32.382Z,24.33
2018-09-02T14:43:32.383Z,24.37
2018-09-02T14:44:32.366Z,24.29
2018-09-02T14:45:32.351Z,24.37
2018-09-02T14:46:32.363Z,24.31
2018-09-02T14:47:32.328Z,24.34
2018-09-02T14:48:32.351Z,24.26
2018-09-02T14:49:32.303Z,24.19
2018-09-02T14:50:32.301Z,24.11
2018-09-02T14:51:32.284Z,24.03
2018-09-02T14:52:32.264Z,23.97
2018-09-02T14:53:32.266Z,23.94
2018-09-02T14:54:32.240Z,24.04
2018-09-02T14:55:32.237Z,24.07
2018-09-02T14:56:32.286Z,24.07
2018-09-02T14:57:32.208Z,24.04
2018-09-02T14:58:32.189Z,24.15
2018-09-02T14:59:32.177Z,24.10
2018-09-02T15:00:32.188Z,24.19
2018-09-02T15:01:32.180Z,24.26
2018-09-02T15:02:32.171Z,24.13
2018-09-02T15:03:32.224Z,24.21
2018-09-02T15:04:32.155Z,24.15
2018-09-02T15:05:32.121Z,24.01
2018-09-02T15:06:32.106Z,24.01
2018-09-02T15:07:32.076Z,24.04
2018-09-02T15:08:32.075Z,24.07
2018-09-02T15:09:32.089Z,24.07
2018-09-02T15:10:32.045Z,24.06
2018-09-02T15:11:32.189Z,23.98
2018-09-02T15:12:32.058Z,23.97
2018-09-02T15:13:32.045Z,23.92
2018-09-02T15:14:32.002Z,23.97
2018-09-02T15:15:31.981Z,23.94
2018-09-02T15:16:31.970Z,23.89
2018-09-02T15:17:31.968Z,23.86
2018-09-02T15:18:31.985Z,23.85
2018-09-02T15:19:31.938Z,23.81
2018-09-02T15:20:31.926Z,23.84
2018-09-02T15:21:31.928Z,23.85
2018-09-02T15:22:31.903Z,23.84
2018-09-02T15:23:31.889Z,23.78
2018-09-02T15:24:31.873Z,23.84
2018-09-02T15:25:31.861Z,23.79
2018-09-02T15:26:31.847Z,23.67
2018-09-02T15:27:31.829Z,23.78
2018-09-02T15:28:31.830Z,23.71
2018-09-02T15:29:31.822Z,23.54
2018-09-02T15:30:31.795Z,23.51
2018-09-02T15:31:31.792Z,23.44
2018-09-02T15:32:31.782Z,23.49
2018-09-02T15:33:31.764Z,23.52
2018-09-02T15:34:31.777Z,23.49
2018-09-02T15:35:31.773Z,23.55
2018-09-02T15:36:31.716Z,23.48
2018-09-02T15:37:31.788Z,23.59
2018-09-02T15:38:31.696Z,23.51
2018-09-02T15:39:31.754Z,23.56
2018-09-02T15:40:31.671Z,23.52
2018-09-02T15:41:31.648Z,23.54
2018-09-02T15:42:31.640Z,23.56
2018-09-02T15:43:31.622Z,23.64
2018-09-02T15:44:31.631Z,23.67
2018-09-02T15:45:31.595Z,23.67
2018-09-02T15:46:31.613Z,23.74
2018-09-02T15:47:31.622Z,23.74
2018-09-02T15:48:31.592Z,23.88
2018-09-02T15:49:31.589Z,23.85
2018-09-02T15:50:31.567Z,23.78
2018-09-02T15:51:31.547Z,23.69
2018-09-02T15:52:31.516Z,23.63
2018-09-02T15:53:31.585Z,23.63
2018-09-02T15:54:31.524Z,23.69
2018-09-02T15:55:31.466Z,23.64
2018-09-02T15:56:31.493Z,23.64
2018-09-02T15:57:31.463Z,23.59
2018-09-02T15:58:31.433Z,23.51
2018-09-02T15:59:31.443Z,23.64
2018-09-02T16:00:31.403Z,23.56
2018-09-02T16:01:31.405Z,23.63
2018-09-02T16:02:31.370Z,23.51
2018-09-02T16:03:31.361Z,23.55
2018-09-02T16:04:31.348Z,23.45
2018-09-02T16:05:31.372Z,23.45
2018-09-02T16:06:31.332Z,23.45
2018-09-02T16:07:31.332Z,23.46
2018-09-02T16:08:31.317Z,23.48
2018-09-02T16:09:31.286Z,23.34
2018-09-02T16:10:31.298Z,23.41
2018-09-02T16:11:31.291Z,23.34
2018-09-02T16:12:31.267Z,23.26
2018-09-02T16:13:31.274Z,23.31
2018-09-02T16:14:31.210Z,23.26
2018-09-02T16:15:31.199Z,23.21
2018-09-02T16:16:31.199Z,23.17
2018-09-02T16:17:31.220Z,23.26
2018-09-02T16:18:31.171Z,23.18
2018-09-02T16:19:31.142Z,23.17
2018-09-02T16:20:31.165Z,23.21
2018-09-02T16:21:31.117Z,23.23
2018-09-02T16:22:31.108Z,23.23
2018-09-02T16:23:31.111Z,23.26
2018-09-02T16:24:31.089Z,23.23
2018-09-02T16:25:31.086Z,23.26
2018-09-02T16:26:31.075Z,23.18
2018-09-02T16:27:31.082Z,23.23
2018-09-02T16:28:31.089Z,23.23
2018-09-02T16:29:31.056Z,23.18
2018-09-02T16:30:30.994Z,23.15
2018-09-02T16:31:31.009Z,23.15
2018-09-02T16:32:30.970Z,23.14
2018-09-02T16:33:30.954Z,23.11
2018-09-02T16:34:30.951Z,23.14
2018-09-02T16:35:30.953Z,23.33
2018-09-02T16:36:30.914Z,23.39
2018-09-02T16:37:30.905Z,23.44
2018-09-02T16:38:30.895Z,23.44
2018-09-02T16:39:30.871Z,23.54
2018-09-02T16:40:30.860Z,23.66
2018-09-02T16:41:30.941Z,23.73
2018-09-02T16:42:30.878Z,23.70
2018-09-02T16:43:30.827Z,23.71
2018-09-02T16:44:30.830Z,23.67
2018-09-02T16:45:30.821Z,23.66
2018-09-02T16:46:30.782Z,23.54
2018-09-02T16:47:30.787Z,23.63
2018-09-02T16:48:30.763Z,23.59
2018-09-02T16:49:30.736Z,23.56
2018-09-02T16:50:30.765Z,23.55
2018-09-02T16:51:30.719Z,23.52
2018-09-02T16:52:30.705Z,23.61
2018-09-02T16:53:30.715Z,23.61
2018-09-02T16:54:30.676Z,23.69
2018-09-02T16:55:30.658Z,23.55
2018-09-02T16:56:30.647Z,23.69
2018-09-02T16:57:30.641Z,23.56
2018-09-02T16:58:30.734Z,23.69
2018-09-02T16:59:30.612Z,23.71
2018-09-02T17:00:30.604Z,23.67
2018-09-02T17:01:30.645Z,23.69
2018-09-02T17:02:30.571Z,23.70
2018-09-02T17:03:30.561Z,23.66
2018-09-02T17:04:30.575Z,23.70
2018-09-02T17:05:30.532Z,23.66
2018-09-02T17:06:30.526Z,23.55
2018-09-02T17:07:30.530Z,23.51
2018-09-02T17:08:30.481Z,23.52
2018-09-02T17:09:30.540Z,23.48
2018-09-02T17:10:30.459Z,23.46
2018-09-02T17:11:30.474Z,23.45
2018-09-02T17:12:30.563Z,23.41
2018-09-02T17:13:30.460Z,23.37
2018-09-02T17:14:30.446Z,23.33
2018-09-02T17:15:30.427Z,23.23
2018-09-02T17:16:30.388Z,23.23
2018-09-02T17:17:30.365Z,23.22
2018-09-02T17:18:30.379Z,23.25
2018-09-02T17:19:30.333Z,23.26
2018-09-02T17:20:30.346Z,23.21
2018-09-02T17:21:30.324Z,23.17
2018-09-02T17:22:30.316Z,23.04
2018-09-02T17:23:30.294Z,23.11
2018-09-02T17:24:30.270Z,23.08
2018-09-02T17:25:30.272Z,23.08
2018-09-02T17:26:30.265Z,22.99
2018-09-02T17:27:30.233Z,23.04
2018-09-02T17:28:30.215Z,23.03
2018-09-02T17:29:30.262Z,22.92
2018-09-02T17:30:30.187Z,22.95
2018-09-02T17:31:30.234Z,22.85
2018-09-02T17:32:30.215Z,22.92
2018-09-02T17:33:30.175Z,22.78
2018-09-02T17:34:30.155Z,22.81
2018-09-02T17:35:30.123Z,22.83
2018-09-02T17:36:30.105Z,22.81
2018-09-02T17:37:30.101Z,22.80
2018-09-02T17:38:30.128Z,22.81
2018-09-02T17:39:30.063Z,22.76
2018-09-02T17:40:30.051Z,22.73
2018-09-02T17:41:30.030Z,22.77
2018-09-02T17:42:30.022Z,22.70
2018-09-02T17:43:30.023Z,22.67
2018-09-02T17:44:30.013Z,22.64
2018-09-02T17:45:29.984Z,22.58
2018-09-02T17:46:29.983Z,22.53
2018-09-02T17:47:29.970Z,22.40
2018-09-02T17:48:29.949Z,22.37
2018-09-02T17:49:29.995Z,22.38
2018-09-02T17:50:29.914Z,22.37
2018-09-02T17:51:29.902Z,22.31
2018-09-02T17:52:29.892Z,22.31
2018-09-02T17:53:29.871Z,22.34
2018-09-02T17:54:34.746Z,22.37
2018-09-02T17:57:02.948Z,22.33
2018-09-02T17:58:02.927Z,22.18
2018-09-02T17:59:02.922Z,22.16
2018-09-02T18:00:02.884Z,22.19
2018-09-02T18:01:03.540Z,22.19
2018-09-02T18:02:02.872Z,22.19
2018-09-02T18:03:02.876Z,22.18
2018-09-02T18:04:02.833Z,22.16
2018-09-02T18:05:02.809Z,22.12
2018-09-02T18:06:02.794Z,22.12
2018-09-02T18:07:02.779Z,22.06
2018-09-02T18:08:02.773Z,22.04
2018-09-02T18:09:02.755Z,22.01
2018-09-02T18:10:02.731Z,22.07
2018-09-02T18:11:02.728Z,22.04
2018-09-02T18:12:02.712Z,22.01
2018-09-02T18:13:02.691Z,21.97
2018-09-02T18:14:02.677Z,21.93
2018-09-02T18:15:02.668Z,21.88
2018-09-02T18:16:02.851Z,21.88
2018-09-02T18:17:02.657Z,21.88
2018-09-02T18:18:02.636Z,21.84
2018-09-02T18:19:02.605Z,21.80
2018-09-02T18:20:02.647Z,21.81
2018-09-02T18:21:02.596Z,21.84
2018-09-02T18:22:02.573Z,21.85
2018-09-02T18:23:02.571Z,21.84
2018-09-02T18:24:02.528Z,21.80
2018-09-02T18:25:02.517Z,21.74
2018-09-02T18:26:02.519Z,21.77
2018-09-02T18:27:02.492Z,21.77
2018-09-02T18:28:02.503Z,21.67
2018-09-02T18:29:02.459Z,21.65
2018-09-02T18:30:02.444Z,21.75
2018-09-02T18:31:02.442Z,21.62
2018-09-02T18:32:02.410Z,21.66
2018-09-02T18:33:02.391Z,21.60
2018-09-02T18:34:02.379Z,21.73
2018-09-02T18:35:02.368Z,21.59
2018-09-02T18:36:02.437Z,21.58
2018-09-02T18:37:02.333Z,21.53
2018-09-02T18:38:02.332Z,21.51
2018-09-02T18:39:02.412Z,21.51
2018-09-02T18:40:02.297Z,21.45
2018-09-02T18:41:02.276Z,21.41
2018-09-02T18:42:02.255Z,21.45
2018-09-02T18:43:02.240Z,21.48
2018-09-02T18:44:02.235Z,21.43
2018-09-02T18:45:02.211Z,21.38
2018-09-02T18:46:02.202Z,21.34
2018-09-02T18:47:02.181Z,21.35
2018-09-02T18:48:02.181Z,21.30
2018-09-02T18:49:02.160Z,21.30
2018-09-02T18:50:02.140Z,21.35
2018-09-02T18:51:02.149Z,21.28
2018-09-02T18:52:02.207Z,21.22
2018-09-02T18:53:02.176Z,21.25
2018-09-02T18:54:02.105Z,21.23
2018-09-02T18:55:02.106Z,21.25
2018-09-02T18:56:02.054Z,21.22
2018-09-02T18:57:02.081Z,21.25
2018-09-02T18:58:02.089Z,21.18
2018-09-02T18:59:01.993Z,21.23
2018-09-02T19:00:01.980Z,21.18
2018-09-02T19:01:01.983Z,21.13
2018-09-02T19:02:01.982Z,21.14
2018-09-02T19:03:02.006Z,21.13
2018-09-02T19:04:01.949Z,21.01
2018-09-02T19:05:01.909Z,20.98
2018-09-02T19:06:01.884Z,21.08
2018-09-02T19:07:01.885Z,20.97
2018-09-02T19:08:01.867Z,21.08
2018-09-02T19:09:01.877Z,21.00
2018-09-02T19:10:01.865Z,21.01
2018-09-02T19:11:01.805Z,20.98
2018-09-02T19:12:01.827Z,21.00
2018-09-02T19:13:01.830Z,20.92
2018-09-02T19:14:01.780Z,20.92
2018-09-02T19:15:01.757Z,20.90
2018-09-02T19:16:01.786Z,20.95
2018-09-02T19:17:01.778Z,20.88
2018-09-02T19:18:01.712Z,20.92
2018-09-02T19:19:01.728Z,20.90
2018-09-02T19:20:01.703Z,20.88
2018-09-02T19:21:01.677Z,20.88
2018-09-02T19:22:01.640Z,20.88
2018-09-02T19:23:01.649Z,20.85
2018-09-02T19:24:01.692Z,20.82
2018-09-02T19:25:01.604Z,20.79
2018-09-02T19:26:01.584Z,20.80
2018-09-02T19:27:01.554Z,20.79
2018-09-02T19:28:01.571Z,20.80
2018-09-02T19:29:01.528Z,20.80
2018-09-02T19:30:01.522Z,20.83
2018-09-02T19:31:01.498Z,20.70
2018-09-02T19:32:01.496Z,20.71
2018-09-02T19:33:01.472Z,20.68
2018-09-02T19:34:01.466Z,20.68
2018-09-02T19:35:01.466Z,20.67
2018-09-02T19:36:01.416Z,20.65
2018-09-02T19:37:01.403Z,20.63
2018-09-02T19:38:01.422Z,20.70
2018-09-02T19:39:01.367Z,20.70
2018-09-02T19:40:01.353Z,20.71
2018-09-02T19:41:01.366Z,20.67
2018-09-02T19:42:01.348Z,20.58
2018-09-02T19:43:01.301Z,20.65
2018-09-02T19:44:01.287Z,20.60
2018-09-02T19:45:01.270Z,20.50
2018-09-02T19:46:01.261Z,20.56
2018-09-02T19:47:01.306Z,20.50
2018-09-02T19:48:01.275Z,20.56
2018-09-02T19:49:01.205Z,20.61
2018-09-02T19:50:01.208Z,20.52
2018-09-02T19:51:01.187Z,20.50
2018-09-02T19:52:01.232Z,20.55
2018-09-02T19:53:01.141Z,20.39
2018-09-02T19:54:01.162Z,20.46
2018-09-02T19:55:01.168Z,20.46
2018-09-02T19:56:01.093Z,20.46
2018-09-02T19:57:01.099Z,20.46
2018-09-02T19:58:01.154Z,20.44
2018-09-02T19:59:01.062Z,20.44
2018-09-02T20:00:01.059Z,20.44
2018-09-02T20:01:01.021Z,20.37
2018-09-02T20:02:01.040Z,20.46
2018-09-02T20:03:01.008Z,20.41
2018-09-02T20:04:00.971Z,20.36
2018-09-02T20:05:00.977Z,20.33
2018-09-02T20:06:01.011Z,20.30
2018-09-02T20:07:00.927Z,20.30
2018-09-02T20:08:00.895Z,20.29
2018-09-02T20:09:00.909Z,20.33
2018-09-02T20:10:00.870Z,20.33
2018-09-02T20:11:00.856Z,20.36
2018-09-02T20:12:00.872Z,20.32
2018-09-02T20:13:00.818Z,20.27
2018-09-02T20:14:00.813Z,20.33
2018-09-02T20:15:00.788Z,20.27
2018-09-02T20:16:00.783Z,20.22
2018-09-02T20:17:00.753Z,20.30
2018-09-02T20:18:00.756Z,20.17
2018-09-02T20:19:00.769Z,20.27
2018-09-02T20:20:00.717Z,20.15
2018-09-02T20:21:00.689Z,20.27
2018-09-02T20:22:00.707Z,20.27
2018-09-02T20:23:00.655Z,20.25
2018-09-02T20:24:00.757Z,20.25
2018-09-02T20:25:00.634Z,20.17
2018-09-02T20:26:00.652Z,20.17
2018-09-02T20:27:00.595Z,20.15
2018-09-02T20:28:00.583Z,20.15
2018-09-02T20:29:00.559Z,20.14
2018-09-02T20:30:00.549Z,20.12
2018-09-02T20:31:00.564Z,20.14
2018-09-02T20:32:00.523Z,20.09
2018-09-02T20:33:00.494Z,20.17
2018-09-02T20:34:00.481Z,20.09
2018-09-02T20:35:00.464Z,20.11
2018-09-02T20:36:00.513Z,20.11
2018-09-02T20:37:00.427Z,20.12
2018-09-02T20:38:00.415Z,20.09
2018-09-02T20:39:00.405Z,20.08
2018-09-02T20:40:00.378Z,20.04
2018-09-02T20:41:00.374Z,20.11
2018-09-02T20:42:00.351Z,20.08
2018-09-02T20:44:50.506Z,20.07
2018-09-02T20:45:34.411Z,20.05
2018-09-02T20:46:34.389Z,20.07
2018-09-02T20:47:34.379Z,20.04
2018-09-02T20:48:34.362Z,20.04
2018-09-02T20:49:34.346Z,20.05
2018-09-02T20:50:34.328Z,20.05
2018-09-02T20:51:34.310Z,20.02
2018-09-02T20:52:34.311Z,20.02
2018-09-02T20:53:34.279Z,19.96